sensor_id;sensor_type;location;lat;lon;timestamp;pressure;altitude;pressure_sealevel;temperature;humidity
7584;BME280;3833;41.764;26.204;2023-02-19T00:01:34;99151.63;;;6.87;100.00
7584;BME280;3833;41.764;26.204;2023-02-19T00:04:03;99158.94;;;6.98;100.00
7584;BME280;3833;41.764;26.204;2023-02-19T00:06:32;99151.09;;;6.99;100.00
7584;BME280;3833;41.764;26.204;2023-02-19T00:08:59;99123.91;;;6.69;100.00
7584;BME280;3833;41.764;26.204;2023-02-19T00:11:28;99144.28;;;6.78;100.00
7584;BME280;3833;41.764;26.204;2023-02-19T00:13:58;99144.97;;;6.82;100.00
7584;BME280;3833;41.764;26.204;2023-02-19T00:16:26;99149.66;;;6.74;100.00
7584;BME280;3833;41.764;26.204;2023-02-19T00:18:54;99145.78;;;6.64;100.00
7584;BME280;3833;41.764;26.204;2023-02-19T00:21:22;99139.13;;;6.58;100.00
7584;BME280;3833;41.764;26.204;2023-02-19T00:23:50;99137.91;;;6.47;100.00
7584;BME280;3833;41.764;26.204;2023-02-19T00:26:18;99138.16;;;6.41;100.00
7584;BME280;3833;41.764;26.204;2023-02-19T00:28:45;99132.66;;;6.48;100.00
7584;BME280;3833;41.764;26.204;2023-02-19T00:31:16;99129.91;;;6.51;100.00
7584;BME280;3833;41.764;26.204;2023-02-19T00:33:43;99016.09;;;5.89;100.00
7584;BME280;3833;41.764;26.204;2023-02-19T00:36:11;99097.41;;;6.24;100.00
7584;BME280;3833;41.764;26.204;2023-02-19T00:38:39;99106.84;;;6.45;100.00
7584;BME280;3833;41.764;26.204;2023-02-19T00:41:07;99032.38;;;6.11;100.00
7584;BME280;3833;41.764;26.204;2023-02-19T00:43:45;99078.47;;;6.42;100.00
7584;BME280;3833;41.764;26.204;2023-02-19T00:46:13;99097.50;;;6.61;100.00
7584;BME280;3833;41.764;26.204;2023-02-19T00:48:41;99097.81;;;6.54;100.00
7584;BME280;3833;41.764;26.204;2023-02-19T00:51:08;99020.00;;;5.79;100.00
7584;BME280;3833;41.764;26.204;2023-02-19T00:53:35;99022.81;;;5.93;100.00
7584;BME280;3833;41.764;26.204;2023-02-19T00:56:02;99104.13;;;6.48;100.00
7584;BME280;3833;41.764;26.204;2023-02-19T00:58:29;99095.56;;;6.28;100.00
7584;BME280;3833;41.764;26.204;2023-02-19T01:00:56;99098.84;;;6.31;100.00
7584;BME280;3833;41.764;26.204;2023-02-19T01:03:23;99087.78;;;6.46;100.00
7584;BME280;3833;41.764;26.204;2023-02-19T01:05:52;99088.94;;;6.59;100.00
7584;BME280;3833;41.764;26.204;2023-02-19T01:08:19;99080.66;;;6.51;100.00
7584;BME280;3833;41.764;26.204;2023-02-19T01:10:46;99076.59;;;6.46;100.00
7584;BME280;3833;41.764;26.204;2023-02-19T01:13:13;99065.47;;;6.62;100.00
7584;BME280;3833;41.764;26.204;2023-02-19T01:15:40;99068.78;;;6.66;100.00
7584;BME280;3833;41.764;26.204;2023-02-19T01:18:07;99052.78;;;6.56;100.00
7584;BME280;3833;41.764;26.204;2023-02-19T01:20:34;99052.50;;;6.62;100.00
7584;BME280;3833;41.764;26.204;2023-02-19T01:23:04;99037.97;;;6.21;100.00
7584;BME280;3833;41.764;26.204;2023-02-19T01:25:31;99044.22;;;6.54;100.00
7584;BME280;3833;41.764;26.204;2023-02-19T01:27:58;99083.53;;;6.25;100.00
7584;BME280;3833;41.764;26.204;2023-02-19T01:30:25;99043.16;;;6.77;100.00
7584;BME280;3833;41.764;26.204;2023-02-19T01:32:51;99079.06;;;7.04;100.00
7584;BME280;3833;41.764;26.204;2023-02-19T01:35:18;99086.84;;;7.22;100.00
7584;BME280;3833;41.764;26.204;2023-02-19T01:37:45;99062.03;;;7.34;100.00
7584;BME280;3833;41.764;26.204;2023-02-19T01:40:13;99051.53;;;7.18;100.00
7584;BME280;3833;41.764;26.204;2023-02-19T01:42:41;99076.09;;;7.47;100.00
7584;BME280;3833;41.764;26.204;2023-02-19T01:45:20;99045.88;;;7.46;100.00
7584;BME280;3833;41.764;26.204;2023-02-19T01:47:55;99037.63;;;7.55;100.00
7584;BME280;3833;41.764;26.204;2023-02-19T01:50:27;99033.69;;;6.94;100.00
7584;BME280;3833;41.764;26.204;2023-02-19T01:52:54;99044.78;;;7.33;100.00
7584;BME280;3833;41.764;26.204;2023-02-19T01:55:23;99049.06;;;7.34;100.00
7584;BME280;3833;41.764;26.204;2023-02-19T01:57:53;99049.53;;;7.07;100.00
7584;BME280;3833;41.764;26.204;2023-02-19T02:00:21;99040.38;;;6.81;100.00
7584;BME280;3833;41.764;26.204;2023-02-19T02:02:51;99035.41;;;6.58;100.00
7584;BME280;3833;41.764;26.204;2023-02-19T02:05:31;99039.31;;;6.48;100.00
7584;BME280;3833;41.764;26.204;2023-02-19T02:08:02;98960.09;;;6.05;100.00
7584;BME280;3833;41.764;26.204;2023-02-19T02:10:49;99005.97;;;6.03;100.00
7584;BME280;3833;41.764;26.204;2023-02-19T02:13:16;99053.72;;;5.97;100.00
7584;BME280;3833;41.764;26.204;2023-02-19T02:15:50;99052.22;;;5.92;100.00
7584;BME280;3833;41.764;26.204;2023-02-19T02:18:27;99049.81;;;6.27;100.00
7584;BME280;3833;41.764;26.204;2023-02-19T02:21:03;99036.44;;;5.98;100.00
7584;BME280;3833;41.764;26.204;2023-02-19T02:23:43;99038.91;;;5.81;100.00
7584;BME280;3833;41.764;26.204;2023-02-19T02:26:39;99056.50;;;6.13;100.00
7584;BME280;3833;41.764;26.204;2023-02-19T02:29:20;99066.59;;;6.18;100.00
7584;BME280;3833;41.764;26.204;2023-02-19T02:31:56;99066.97;;;6.10;100.00
7584;BME280;3833;41.764;26.204;2023-02-19T02:34:28;99065.16;;;6.12;100.00
7584;BME280;3833;41.764;26.204;2023-02-19T02:36:58;99042.41;;;6.00;100.00
7584;BME280;3833;41.764;26.204;2023-02-19T02:39:26;99053.66;;;5.99;100.00
7584;BME280;3833;41.764;26.204;2023-02-19T02:41:57;99035.91;;;5.90;100.00
7584;BME280;3833;41.764;26.204;2023-02-19T02:44:42;99044.31;;;6.15;100.00
7584;BME280;3833;41.764;26.204;2023-02-19T02:47:36;98936.22;;;5.60;100.00
7584;BME280;3833;41.764;26.204;2023-02-19T02:50:12;99045.19;;;6.33;100.00
7584;BME280;3833;41.764;26.204;2023-02-19T02:52:41;99038.19;;;6.35;100.00
7584;BME280;3833;41.764;26.204;2023-02-19T02:55:30;99041.56;;;6.37;100.00
7584;BME280;3833;41.764;26.204;2023-02-19T02:58:00;98983.41;;;5.86;100.00
7584;BME280;3833;41.764;26.204;2023-02-19T03:00:28;99072.66;;;6.37;100.00
7584;BME280;3833;41.764;26.204;2023-02-19T03:03:23;99058.06;;;6.35;100.00
7584;BME280;3833;41.764;26.204;2023-02-19T03:05:52;98963.03;;;5.79;100.00
7584;BME280;3833;41.764;26.204;2023-02-19T03:08:25;99062.47;;;6.33;100.00
7584;BME280;3833;41.764;26.204;2023-02-19T03:10:57;99062.69;;;6.28;100.00
7584;BME280;3833;41.764;26.204;2023-02-19T03:13:45;99062.00;;;6.43;100.00
7584;BME280;3833;41.764;26.204;2023-02-19T03:16:33;99064.97;;;6.54;100.00
7584;BME280;3833;41.764;26.204;2023-02-19T03:19:21;99069.03;;;6.60;100.00
7584;BME280;3833;41.764;26.204;2023-02-19T03:21:52;99058.34;;;6.29;100.00
7584;BME280;3833;41.764;26.204;2023-02-19T03:24:26;99000.41;;;5.72;100.00
7584;BME280;3833;41.764;26.204;2023-02-19T03:27:13;98981.13;;;5.59;100.00
7584;BME280;3833;41.764;26.204;2023-02-19T03:29:42;99077.34;;;6.10;100.00
7584;BME280;3833;41.764;26.204;2023-02-19T03:32:14;99084.09;;;6.14;100.00
7584;BME280;3833;41.764;26.204;2023-02-19T03:34:47;99088.38;;;6.15;100.00
7584;BME280;3833;41.764;26.204;2023-02-19T03:37:20;99073.59;;;6.17;100.00
7584;BME280;3833;41.764;26.204;2023-02-19T03:39:51;99078.66;;;6.19;100.00
7584;BME280;3833;41.764;26.204;2023-02-19T03:42:31;99075.97;;;6.21;100.00
7584;BME280;3833;41.764;26.204;2023-02-19T03:45:13;99079.44;;;6.21;100.00
7584;BME280;3833;41.764;26.204;2023-02-19T03:47:44;99072.44;;;6.42;100.00
7584;BME280;3833;41.764;26.204;2023-02-19T03:50:18;99067.69;;;6.51;100.00
7584;BME280;3833;41.764;26.204;2023-02-19T03:52:57;99067.53;;;6.36;100.00
7584;BME280;3833;41.764;26.204;2023-02-19T03:55:31;99062.41;;;6.34;100.00
7584;BME280;3833;41.764;26.204;2023-02-19T03:58:06;99073.75;;;6.32;100.00
7584;BME280;3833;41.764;26.204;2023-02-19T04:00:38;99091.59;;;6.39;100.00
7584;BME280;3833;41.764;26.204;2023-02-19T04:03:16;99102.09;;;6.36;100.00
7584;BME280;3833;41.764;26.204;2023-02-19T04:05:49;99104.84;;;6.32;100.00
7584;BME280;3833;41.764;26.204;2023-02-19T04:08:19;99099.09;;;6.25;100.00
7584;BME280;3833;41.764;26.204;2023-02-19T04:10:48;99113.13;;;6.21;100.00
7584;BME280;3833;41.764;26.204;2023-02-19T04:13:19;99106.50;;;6.15;100.00
7584;BME280;3833;41.764;26.204;2023-02-19T04:15:49;99098.78;;;6.13;100.00
7584;BME280;3833;41.764;26.204;2023-02-19T04:18:20;99099.50;;;6.17;100.00
7584;BME280;3833;41.764;26.204;2023-02-19T04:20:51;99060.91;;;6.11;100.00
7584;BME280;3833;41.764;26.204;2023-02-19T04:23:21;99074.03;;;6.26;100.00
7584;BME280;3833;41.764;26.204;2023-02-19T04:25:53;99067.50;;;6.18;100.00
7584;BME280;3833;41.764;26.204;2023-02-19T04:28:21;99060.59;;;6.36;100.00
7584;BME280;3833;41.764;26.204;2023-02-19T04:30:48;99071.97;;;6.52;100.00
7584;BME280;3833;41.764;26.204;2023-02-19T04:33:15;99050.75;;;6.24;100.00
7584;BME280;3833;41.764;26.204;2023-02-19T04:35:42;99087.41;;;6.55;100.00
7584;BME280;3833;41.764;26.204;2023-02-19T04:38:10;99090.25;;;6.49;100.00
7584;BME280;3833;41.764;26.204;2023-02-19T04:40:38;99098.06;;;6.29;100.00
7584;BME280;3833;41.764;26.204;2023-02-19T04:43:05;99111.59;;;6.16;100.00
7584;BME280;3833;41.764;26.204;2023-02-19T04:45:32;99112.25;;;6.01;100.00
7584;BME280;3833;41.764;26.204;2023-02-19T04:47:59;99091.66;;;5.78;100.00
7584;BME280;3833;41.764;26.204;2023-02-19T04:50:26;99112.94;;;5.85;100.00
7584;BME280;3833;41.764;26.204;2023-02-19T04:52:53;99101.19;;;5.98;100.00
7584;BME280;3833;41.764;26.204;2023-02-19T04:55:21;99127.81;;;6.21;100.00
7584;BME280;3833;41.764;26.204;2023-02-19T04:57:48;99045.53;;;5.66;100.00
7584;BME280;3833;41.764;26.204;2023-02-19T05:00:14;99136.38;;;6.23;100.00
7584;BME280;3833;41.764;26.204;2023-02-19T05:02:41;99127.03;;;5.99;100.00
7584;BME280;3833;41.764;26.204;2023-02-19T05:05:08;99127.47;;;5.67;100.00
7584;BME280;3833;41.764;26.204;2023-02-19T05:07:37;99133.78;;;5.82;100.00
7584;BME280;3833;41.764;26.204;2023-02-19T05:10:04;99153.59;;;5.83;100.00
7584;BME280;3833;41.764;26.204;2023-02-19T05:12:33;99158.16;;;5.76;100.00
7584;BME280;3833;41.764;26.204;2023-02-19T05:14:59;99153.84;;;5.77;100.00
7584;BME280;3833;41.764;26.204;2023-02-19T05:17:26;99163.41;;;5.75;100.00
7584;BME280;3833;41.764;26.204;2023-02-19T05:19:53;99158.56;;;5.67;100.00
7584;BME280;3833;41.764;26.204;2023-02-19T05:22:20;99158.25;;;5.75;100.00
7584;BME280;3833;41.764;26.204;2023-02-19T05:24:47;99155.97;;;5.89;100.00
7584;BME280;3833;41.764;26.204;2023-02-19T05:27:13;99167.75;;;5.96;100.00
7584;BME280;3833;41.764;26.204;2023-02-19T05:29:42;99165.84;;;6.01;100.00
7584;BME280;3833;41.764;26.204;2023-02-19T05:32:09;99164.91;;;6.02;100.00
7584;BME280;3833;41.764;26.204;2023-02-19T05:34:36;99140.97;;;5.97;100.00
7584;BME280;3833;41.764;26.204;2023-02-19T05:37:03;99087.78;;;5.67;100.00
7584;BME280;3833;41.764;26.204;2023-02-19T05:39:29;99093.34;;;5.79;100.00
7584;BME280;3833;41.764;26.204;2023-02-19T05:41:56;99174.13;;;6.48;100.00
7584;BME280;3833;41.764;26.204;2023-02-19T05:44:23;99170.81;;;6.65;100.00
7584;BME280;3833;41.764;26.204;2023-02-19T05:46:52;99116.75;;;6.56;100.00
7584;BME280;3833;41.764;26.204;2023-02-19T05:49:18;99161.06;;;7.08;100.00
7584;BME280;3833;41.764;26.204;2023-02-19T05:51:45;99165.53;;;7.60;100.00
7584;BME280;3833;41.764;26.204;2023-02-19T05:54:15;99174.91;;;8.82;100.00
7584;BME280;3833;41.764;26.204;2023-02-19T05:56:42;99166.94;;;9.64;100.00
7584;BME280;3833;41.764;26.204;2023-02-19T05:59:14;99165.06;;;10.55;100.00
7584;BME280;3833;41.764;26.204;2023-02-19T06:01:41;99158.19;;;10.96;100.00
7584;BME280;3833;41.764;26.204;2023-02-19T06:04:10;99185.88;;;11.95;100.00
7584;BME280;3833;41.764;26.204;2023-02-19T06:06:37;99144.59;;;12.12;98.88
7584;BME280;3833;41.764;26.204;2023-02-19T06:09:06;99197.59;;;12.79;95.31
7584;BME280;3833;41.764;26.204;2023-02-19T06:11:33;99189.47;;;12.96;92.25
7584;BME280;3833;41.764;26.204;2023-02-19T06:14:00;99207.03;;;11.92;100.00
7584;BME280;3833;41.764;26.204;2023-02-19T06:16:27;99216.13;;;12.13;100.00
7584;BME280;3833;41.764;26.204;2023-02-19T06:18:56;99216.78;;;12.29;100.00
7584;BME280;3833;41.764;26.204;2023-02-19T06:21:24;99218.00;;;12.23;100.00
7584;BME280;3833;41.764;26.204;2023-02-19T06:23:51;99221.44;;;11.85;100.00
7584;BME280;3833;41.764;26.204;2023-02-19T06:26:20;99219.47;;;11.74;100.00
7584;BME280;3833;41.764;26.204;2023-02-19T06:28:49;99197.69;;;11.88;100.00
7584;BME280;3833;41.764;26.204;2023-02-19T06:31:17;99206.56;;;11.85;100.00
7584;BME280;3833;41.764;26.204;2023-02-19T06:33:45;99199.25;;;12.17;100.00
7584;BME280;3833;41.764;26.204;2023-02-19T06:36:14;99204.78;;;12.12;100.00
7584;BME280;3833;41.764;26.204;2023-02-19T06:38:43;99101.75;;;11.62;100.00
7584;BME280;3833;41.764;26.204;2023-02-19T06:41:11;99193.63;;;13.36;100.00
7584;BME280;3833;41.764;26.204;2023-02-19T06:43:38;99186.88;;;13.57;97.88
7584;BME280;3833;41.764;26.204;2023-02-19T06:46:06;99200.41;;;14.23;92.90
7584;BME280;3833;41.764;26.204;2023-02-19T06:48:33;99197.56;;;14.94;83.46
7584;BME280;3833;41.764;26.204;2023-02-19T06:51:01;99198.22;;;14.17;88.49
7584;BME280;3833;41.764;26.204;2023-02-19T06:53:28;99193.78;;;14.30;88.99
7584;BME280;3833;41.764;26.204;2023-02-19T06:55:59;99188.88;;;13.89;89.29
7584;BME280;3833;41.764;26.204;2023-02-19T06:58:27;99190.63;;;14.93;85.39
7584;BME280;3833;41.764;26.204;2023-02-19T07:00:54;99198.09;;;14.42;87.46
7584;BME280;3833;41.764;26.204;2023-02-19T07:03:20;99198.84;;;14.89;86.02
7584;BME280;3833;41.764;26.204;2023-02-19T07:05:48;99200.31;;;15.15;83.80
7584;BME280;3833;41.764;26.204;2023-02-19T07:08:15;99192.06;;;15.08;81.64
7584;BME280;3833;41.764;26.204;2023-02-19T07:10:42;99191.63;;;16.22;78.74
7584;BME280;3833;41.764;26.204;2023-02-19T07:13:10;99189.72;;;17.26;75.79
7584;BME280;3833;41.764;26.204;2023-02-19T07:15:37;99185.72;;;17.52;70.35
7584;BME280;3833;41.764;26.204;2023-02-19T07:18:05;99192.91;;;17.50;72.25
7584;BME280;3833;41.764;26.204;2023-02-19T07:20:35;99196.69;;;18.06;69.06
7584;BME280;3833;41.764;26.204;2023-02-19T07:23:02;99202.97;;;19.18;65.74
7584;BME280;3833;41.764;26.204;2023-02-19T07:25:29;99200.00;;;19.67;62.87
7584;BME280;3833;41.764;26.204;2023-02-19T07:27:56;99174.69;;;19.55;62.25
7584;BME280;3833;41.764;26.204;2023-02-19T07:30:24;99186.06;;;21.39;58.55
7584;BME280;3833;41.764;26.204;2023-02-19T07:32:51;99192.81;;;22.42;55.14
7584;BME280;3833;41.764;26.204;2023-02-19T07:35:18;99182.19;;;22.90;53.05
7584;BME280;3833;41.764;26.204;2023-02-19T07:37:45;99209.47;;;22.84;51.80
7584;BME280;3833;41.764;26.204;2023-02-19T07:40:15;99194.81;;;22.80;50.67
7584;BME280;3833;41.764;26.204;2023-02-19T07:42:42;99201.00;;;22.72;49.94
7584;BME280;3833;41.764;26.204;2023-02-19T07:45:09;99214.72;;;24.40;47.55
7584;BME280;3833;41.764;26.204;2023-02-19T07:47:37;99224.91;;;23.60;48.37
7584;BME280;3833;41.764;26.204;2023-02-19T07:50:05;99227.31;;;24.99;45.61
7584;BME280;3833;41.764;26.204;2023-02-19T07:52:32;99223.09;;;25.92;44.49
7584;BME280;3833;41.764;26.204;2023-02-19T07:55:00;99203.09;;;25.23;43.71
7584;BME280;3833;41.764;26.204;2023-02-19T07:57:26;99223.91;;;26.57;42.39
7584;BME280;3833;41.764;26.204;2023-02-19T07:59:54;99219.63;;;25.26;44.74
7584;BME280;3833;41.764;26.204;2023-02-19T08:02:21;99226.59;;;23.99;46.62
7584;BME280;3833;41.764;26.204;2023-02-19T08:05:06;99202.34;;;23.86;46.93
7584;BME280;3833;41.764;26.204;2023-02-19T08:07:35;99160.84;;;24.14;45.10
7584;BME280;3833;41.764;26.204;2023-02-19T08:10:04;99211.78;;;29.11;39.62
7584;BME280;3833;41.764;26.204;2023-02-19T08:12:55;99196.47;;;28.98;37.93
7584;BME280;3833;41.764;26.204;2023-02-19T08:15:42;99191.72;;;28.21;38.78
7584;BME280;3833;41.764;26.204;2023-02-19T08:18:10;99201.44;;;29.60;36.86
7584;BME280;3833;41.764;26.204;2023-02-19T08:20:38;99198.78;;;26.79;39.43
7584;BME280;3833;41.764;26.204;2023-02-19T08:23:05;99128.06;;;25.38;41.23
7584;BME280;3833;41.764;26.204;2023-02-19T08:25:32;99221.13;;;28.36;38.02
7584;BME280;3833;41.764;26.204;2023-02-19T08:27:59;99226.66;;;27.87;36.57
7584;BME280;3833;41.764;26.204;2023-02-19T08:30:27;99202.88;;;24.87;41.54
7584;BME280;3833;41.764;26.204;2023-02-19T08:32:54;99219.56;;;25.77;40.67
7584;BME280;3833;41.764;26.204;2023-02-19T08:35:21;99216.59;;;25.58;39.57
7584;BME280;3833;41.764;26.204;2023-02-19T08:37:50;99195.59;;;25.98;37.96
7584;BME280;3833;41.764;26.204;2023-02-19T08:40:17;99221.47;;;27.79;36.99
7584;BME280;3833;41.764;26.204;2023-02-19T08:42:44;99225.06;;;26.90;37.86
7584;BME280;3833;41.764;26.204;2023-02-19T08:45:11;99217.38;;;29.16;35.79
7584;BME280;3833;41.764;26.204;2023-02-19T08:47:38;99205.25;;;26.49;37.36
7584;BME280;3833;41.764;26.204;2023-02-19T08:50:06;99206.41;;;26.82;36.95
7584;BME280;3833;41.764;26.204;2023-02-19T08:52:33;99184.47;;;27.75;35.69
7584;BME280;3833;41.764;26.204;2023-02-19T08:55:02;99195.44;;;23.45;39.26
7584;BME280;3833;41.764;26.204;2023-02-19T08:57:29;99208.84;;;25.48;36.48
7584;BME280;3833;41.764;26.204;2023-02-19T08:59:56;99128.16;;;25.31;33.91
7584;BME280;3833;41.764;26.204;2023-02-19T09:02:23;99195.88;;;26.24;32.97
7584;BME280;3833;41.764;26.204;2023-02-19T09:04:50;99190.25;;;25.84;33.36
7584;BME280;3833;41.764;26.204;2023-02-19T09:07:17;99187.53;;;25.55;33.72
7584;BME280;3833;41.764;26.204;2023-02-19T09:09:45;99183.06;;;27.18;32.17
7584;BME280;3833;41.764;26.204;2023-02-19T09:12:13;99165.34;;;28.44;30.12
7584;BME280;3833;41.764;26.204;2023-02-19T09:14:40;99179.38;;;28.33;31.54
7584;BME280;3833;41.764;26.204;2023-02-19T09:17:08;99104.41;;;28.70;30.28
7584;BME280;3833;41.764;26.204;2023-02-19T09:19:35;99168.03;;;26.75;30.83
7584;BME280;3833;41.764;26.204;2023-02-19T09:22:03;99166.81;;;26.56;32.83
7584;BME280;3833;41.764;26.204;2023-02-19T09:24:30;99165.38;;;24.81;33.32
7584;BME280;3833;41.764;26.204;2023-02-19T09:26:58;99172.19;;;27.93;30.47
7584;BME280;3833;41.764;26.204;2023-02-19T09:29:27;99164.19;;;28.85;29.32
7584;BME280;3833;41.764;26.204;2023-02-19T09:31:57;99167.09;;;28.84;29.01
7584;BME280;3833;41.764;26.204;2023-02-19T09:34:27;99160.28;;;29.01;28.50
7584;BME280;3833;41.764;26.204;2023-02-19T09:36:54;99170.97;;;30.66;27.13
7584;BME280;3833;41.764;26.204;2023-02-19T09:39:21;99166.16;;;28.38;27.99
7584;BME280;3833;41.764;26.204;2023-02-19T09:41:51;99157.81;;;27.67;29.56
7584;BME280;3833;41.764;26.204;2023-02-19T09:44:24;99164.75;;;25.73;31.35
7584;BME280;3833;41.764;26.204;2023-02-19T09:46:55;99164.22;;;24.98;31.33
7584;BME280;3833;41.764;26.204;2023-02-19T09:49:26;99149.72;;;26.22;31.42
7584;BME280;3833;41.764;26.204;2023-02-19T09:51:57;99146.78;;;25.96;30.90
7584;BME280;3833;41.764;26.204;2023-02-19T09:54:27;99129.19;;;26.08;30.95
7584;BME280;3833;41.764;26.204;2023-02-19T09:56:55;99065.75;;;24.95;31.60
7584;BME280;3833;41.764;26.204;2023-02-19T09:59:25;99138.75;;;25.67;31.60
7584;BME280;3833;41.764;26.204;2023-02-19T10:01:57;99084.50;;;24.87;31.67
7584;BME280;3833;41.764;26.204;2023-02-19T10:04:25;99134.81;;;24.98;32.94
7584;BME280;3833;41.764;26.204;2023-02-19T10:06:53;99137.59;;;24.90;33.67
7584;BME280;3833;41.764;26.204;2023-02-19T10:09:28;99132.03;;;25.57;32.18
7584;BME280;3833;41.764;26.204;2023-02-19T10:11:57;99149.69;;;26.78;30.84
7584;BME280;3833;41.764;26.204;2023-02-19T10:14:29;99134.34;;;26.66;31.84
7584;BME280;3833;41.764;26.204;2023-02-19T10:17:03;99123.56;;;24.88;32.02
7584;BME280;3833;41.764;26.204;2023-02-19T10:19:32;99133.75;;;23.56;34.32
7584;BME280;3833;41.764;26.204;2023-02-19T10:22:02;99125.63;;;24.19;33.35
7584;BME280;3833;41.764;26.204;2023-02-19T10:24:29;99122.28;;;23.94;34.47
7584;BME280;3833;41.764;26.204;2023-02-19T10:26:57;99114.44;;;25.33;32.73
7584;BME280;3833;41.764;26.204;2023-02-19T10:29:23;99098.66;;;25.38;32.22
7584;BME280;3833;41.764;26.204;2023-02-19T10:32:14;99105.38;;;23.25;34.72
7584;BME280;3833;41.764;26.204;2023-02-19T10:34:43;99094.88;;;21.64;37.16
7584;BME280;3833;41.764;26.204;2023-02-19T10:37:13;99112.81;;;20.78;39.25
7584;BME280;3833;41.764;26.204;2023-02-19T10:39:42;99073.94;;;20.44;38.90
7584;BME280;3833;41.764;26.204;2023-02-19T10:42:14;99080.00;;;21.04;39.31
7584;BME280;3833;41.764;26.204;2023-02-19T10:44:43;99083.78;;;21.35;39.14
7584;BME280;3833;41.764;26.204;2023-02-19T10:47:17;99004.25;;;20.93;38.85
7584;BME280;3833;41.764;26.204;2023-02-19T10:49:45;98915.66;;;20.94;37.88
7584;BME280;3833;41.764;26.204;2023-02-19T10:52:18;99058.22;;;21.01;38.61
7584;BME280;3833;41.764;26.204;2023-02-19T10:54:49;99037.09;;;20.92;39.69
7584;BME280;3833;41.764;26.204;2023-02-19T10:57:28;99039.06;;;21.64;39.27
7584;BME280;3833;41.764;26.204;2023-02-19T10:59:59;99048.41;;;21.84;39.79
7584;BME280;3833;41.764;26.204;2023-02-19T11:02:29;99047.59;;;22.23;38.22
7584;BME280;3833;41.764;26.204;2023-02-19T11:05:16;99045.06;;;21.74;39.14
7584;BME280;3833;41.764;26.204;2023-02-19T11:07:46;99036.84;;;21.02;39.27
7584;BME280;3833;41.764;26.204;2023-02-19T11:10:26;99025.06;;;21.54;39.13
7584;BME280;3833;41.764;26.204;2023-02-19T11:12:56;99035.59;;;21.88;39.45
7584;BME280;3833;41.764;26.204;2023-02-19T11:15:27;99028.44;;;21.72;40.34
7584;BME280;3833;41.764;26.204;2023-02-19T11:17:59;99021.19;;;21.90;40.72
7584;BME280;3833;41.764;26.204;2023-02-19T11:20:28;99019.19;;;22.24;40.67
7584;BME280;3833;41.764;26.204;2023-02-19T11:22:58;99013.84;;;22.24;40.00
7584;BME280;3833;41.764;26.204;2023-02-19T11:25:27;99011.84;;;21.94;40.03
7584;BME280;3833;41.764;26.204;2023-02-19T11:27:57;98985.25;;;21.78;39.50
7584;BME280;3833;41.764;26.204;2023-02-19T11:30:37;99009.06;;;22.35;40.59
7584;BME280;3833;41.764;26.204;2023-02-19T11:33:20;99012.88;;;22.41;40.05
7584;BME280;3833;41.764;26.204;2023-02-19T11:35:49;99007.22;;;22.36;41.13
7584;BME280;3833;41.764;26.204;2023-02-19T11:38:18;98972.78;;;22.02;40.06
7584;BME280;3833;41.764;26.204;2023-02-19T11:40:51;99007.88;;;22.22;39.75
7584;BME280;3833;41.764;26.204;2023-02-19T11:46:18;99003.53;;;22.21;39.95
7584;BME280;3833;41.764;26.204;2023-02-19T11:48:56;99003.22;;;22.40;39.42
7584;BME280;3833;41.764;26.204;2023-02-19T11:51:40;98982.94;;;22.31;38.73
7584;BME280;3833;41.764;26.204;2023-02-19T11:54:24;98926.72;;;22.42;38.30
7584;BME280;3833;41.764;26.204;2023-02-19T11:57:04;98995.72;;;22.51;38.46
7584;BME280;3833;41.764;26.204;2023-02-19T11:59:38;98980.94;;;22.41;39.17
7584;BME280;3833;41.764;26.204;2023-02-19T12:02:31;98984.06;;;22.44;39.42
7584;BME280;3833;41.764;26.204;2023-02-19T12:08:36;98981.13;;;21.92;39.75
7584;BME280;3833;41.764;26.204;2023-02-19T12:11:30;98979.28;;;22.16;39.65
7584;BME280;3833;41.764;26.204;2023-02-19T12:14:15;98968.97;;;21.97;39.44
7584;BME280;3833;41.764;26.204;2023-02-19T12:16:49;98973.97;;;21.92;40.23
7584;BME280;3833;41.764;26.204;2023-02-19T12:19:42;98969.00;;;21.81;39.97
7584;BME280;3833;41.764;26.204;2023-02-19T12:22:26;98920.41;;;21.31;40.18
7584;BME280;3833;41.764;26.204;2023-02-19T12:25:15;98953.69;;;22.07;40.19
7584;BME280;3833;41.764;26.204;2023-02-19T12:27:54;98951.66;;;22.41;39.57
7584;BME280;3833;41.764;26.204;2023-02-19T12:30:50;98941.00;;;22.33;39.32
7584;BME280;3833;41.764;26.204;2023-02-19T12:33:43;98929.06;;;22.21;41.08
7584;BME280;3833;41.764;26.204;2023-02-19T12:36:19;98929.34;;;22.58;40.37
7584;BME280;3833;41.764;26.204;2023-02-19T12:38:59;98934.22;;;22.85;39.42
7584;BME280;3833;41.764;26.204;2023-02-19T12:41:37;98886.06;;;22.64;39.03
7584;BME280;3833;41.764;26.204;2023-02-19T12:44:11;98922.84;;;23.07;39.09
7584;BME280;3833;41.764;26.204;2023-02-19T12:46:43;98909.84;;;22.96;39.23
7584;BME280;3833;41.764;26.204;2023-02-19T12:49:18;98920.47;;;23.12;38.99
7584;BME280;3833;41.764;26.204;2023-02-19T12:51:51;98847.66;;;22.89;38.68
7584;BME280;3833;41.764;26.204;2023-02-19T12:54:25;98884.84;;;23.13;40.10
7584;BME280;3833;41.764;26.204;2023-02-19T12:56:58;98927.06;;;22.23;42.56
7584;BME280;3833;41.764;26.204;2023-02-19T12:59:30;98902.13;;;22.40;41.54
7584;BME280;3833;41.764;26.204;2023-02-19T13:02:03;98923.13;;;22.11;42.86
7584;BME280;3833;41.764;26.204;2023-02-19T13:04:40;98910.75;;;22.42;41.35
7584;BME280;3833;41.764;26.204;2023-02-19T13:07:12;98909.44;;;22.30;41.12
7584;BME280;3833;41.764;26.204;2023-02-19T13:09:45;98891.34;;;22.17;41.27
7584;BME280;3833;41.764;26.204;2023-02-19T13:12:18;98839.72;;;21.56;41.29
7584;BME280;3833;41.764;26.204;2023-02-19T13:14:49;98907.16;;;21.95;41.64
7584;BME280;3833;41.764;26.204;2023-02-19T13:17:24;98904.53;;;21.63;40.59
7584;BME280;3833;41.764;26.204;2023-02-19T13:19:59;98900.22;;;21.62;40.22
7584;BME280;3833;41.764;26.204;2023-02-19T13:22:33;98900.53;;;21.59;40.25
7584;BME280;3833;41.764;26.204;2023-02-19T13:25:25;98896.16;;;21.34;41.72
7584;BME280;3833;41.764;26.204;2023-02-19T13:28:15;98892.59;;;21.67;40.99
7584;BME280;3833;41.764;26.204;2023-02-19T13:31:05;98887.56;;;21.48;40.71
7584;BME280;3833;41.764;26.204;2023-02-19T13:33:44;98882.59;;;21.45;41.80
7584;BME280;3833;41.764;26.204;2023-02-19T13:36:23;98884.19;;;21.14;42.34
7584;BME280;3833;41.764;26.204;2023-02-19T13:38:51;98881.91;;;21.35;41.69